Greta — WDF3298 — position and weather

sailwx.info

Track history (hours):
 
Tides and Currents Weather Stations Pressure Air Temp Water Temp Dewpoint Dewpoint Depression Visibility Wind Speed Wind Dir Waves Ship Positions

Greta

Owner: General Electric Credit Corporation Of Tennessee, Seattle, WA. More information available from US FCC via Universal Licensing System and Coast Guard Vessel Documentation Center.

Last reported at 2015-Apr-28 07:09 UTC. Time now 2015-Jul-28 17:47 UTC.
Position N 58°18' W 136°18'.
Warning: this ship's position is months out of date.

Length 44 m; draft 2 m.

Type: Ship. MMSI: 367438220.

Date/timePositionNaut miles runAvg speedWind from/ knotsBaromVisibWave heightAir tempDewpointWater temp
2015-Apr-28 07:09N 58°18' W 136°18'4 6.3
2015-Apr-28 06:33N 58°19' W 136°11'6 6.3
2015-Apr-28 05:33N 58°20' W 135°60'6 6.0
2015-Apr-28 04:33N 58°22' W 135°49'6 6.4
2015-Apr-28 03:33N 58°23' W 135°37'2 2.1
2015-Apr-28 02:33N 58°23' W 135°33'0 0.1
2015-Apr-28 01:33N 58°23' W 135°33'0 0.1
2015-Apr-28 00:33N 58°23' W 135°33'4 3.4
2015-Apr-27 23:21N 58°20' W 135°27'  
2015-Apr-24 01:26N 51°25' W 128°03'6 4.9
2015-Apr-24 00:10N 51°20' W 127°57'4 5.2
2015-Apr-23 23:28N 51°17' W 127°55'5 5.3
2015-Apr-23 22:30N 51°12' W 127°52'5 5.0
2015-Apr-23 21:33N 51°08' W 127°48'6 5.9
2015-Apr-23 20:33N 51°04' W 127°41'6 6.3
2015-Apr-23 19:33N 50°60' W 127°34'7 7.3
2015-Apr-23 18:33N 50°55' W 127°25'7 6.9
2015-Apr-23 17:33N 50°51' W 127°15'7 7.1
2015-Apr-23 16:33N 50°48' W 127°06'7 6.9
2015-Apr-23 15:31N 50°43' W 126°57'7 6.7
2015-Apr-23 14:31N 50°39' W 126°49'7 6.3
2015-Apr-23 13:21N 50°33' W 126°41'95 5.0
2015-Apr-22 18:08N 49°42' W 124°37'4 3.9
2015-Apr-22 17:11N 49°39' W 124°32'13 4.8
2015-Apr-22 14:31N 49°32' W 124°16'7 6.3
2015-Apr-22 13:25N 49°28' W 124°07'5 5.8
2015-Apr-22 12:33N 49°25' W 124°01'6 5.8
2015-Apr-22 11:31N 49°21' W 123°54'5 5.5
2015-Apr-22 10:33N 49°18' W 123°47'5 5.3
2015-Apr-22 09:33N 49°15' W 123°41'6 5.6
2015-Apr-22 08:34N 49°12' W 123°34'5 5.3
2015-Apr-22 07:33N 49°08' W 123°27'5 4.8
2015-Apr-22 06:33N 49°05' W 123°22'4 4.4
2015-Apr-22 05:33N 49°02' W 123°17'5 5.3
2015-Apr-22 04:33N 48°59' W 123°11'5 5.1
2015-Apr-22 03:33N 48°55' W 123°05'6 5.9
2015-Apr-22 02:32N 48°51' W 122°58'6 5.9
2015-Apr-22 01:32N 48°47' W 122°51'7 6.8
2015-Apr-22 00:33N 48°43' W 122°44'8 7.8
2015-Apr-21 23:33N 48°35' W 122°45'7 6.6
2015-Apr-21 22:33N 48°29' W 122°44'4 4.2
2015-Apr-21 21:33N 48°24' W 122°44'3 3.2
2015-Apr-21 20:33N 48°21' W 122°45'4 3.4
2015-Apr-21 19:30N 48°18' W 122°46'4 4.5
2015-Apr-21 18:31N 48°14' W 122°48'5 5.2
2015-Apr-21 17:32N 48°10' W 122°43'8 8.2
2015-Apr-21 16:33N 48°03' W 122°38'9 8.8
2015-Apr-21 15:33N 47°56' W 122°29'7 7.1
2015-Apr-21 14:33N 47°49' W 122°26'6 6.0
2015-Apr-21 13:33N 47°43' W 122°26'5 5.1
2015-Apr-21 12:33N 47°38' W 122°26'3 3.4
2015-Apr-21 11:33N 47°35' W 122°22'0 0.0
2015-Apr-21 10:33N 47°35' W 122°22'0 0.0
2015-Apr-21 09:33N 47°35' W 122°23'0 0.0
2015-Apr-21 08:33N 47°35' W 122°22'0 0.1
2015-Apr-21 07:33N 47°35' W 122°22'0 0.1
2015-Apr-21 06:34N 47°35' W 122°22'5 5.4
2015-Apr-21 05:33N 47°41' W 122°25'1 1.3
2015-Apr-21 04:33N 47°40' W 122°23'0 0.0
2015-Apr-21 03:33N 47°40' W 122°23'0 0.0
2015-Apr-21 02:33N 47°40' W 122°23'0 0.0
2015-Apr-21 01:33N 47°40' W 122°23'0 0.0
2015-Apr-21 00:33N 47°40' W 122°23'0 0.2
2015-Apr-20 23:34N 47°40' W 122°23'2 2.3
2015-Apr-20 22:33N 47°38' W 122°26'7 6.6
2015-Apr-20 21:33N 47°33' W 122°20'0 0.0
2015-Apr-20 20:33N 47°33' W 122°20'0 0.0
2015-Apr-20 19:33N 47°33' W 122°20'0 0.0
2015-Apr-20 18:33N 47°33' W 122°20'0 0.0
2015-Apr-20 17:33N 47°33' W 122°20'0 0.1
2015-Apr-20 16:33N 47°33' W 122°20'1 0.8
2015-Apr-20 15:33N 47°32' W 122°20'0 0.0
2015-Apr-20 14:33N 47°32' W 122°20'0 0.0
2015-Apr-20 13:33N 47°32' W 122°20'0 0.0
2015-Apr-20 12:33N 47°32' W 122°20'0 0.0
2015-Apr-20 11:33N 47°32' W 122°20'0 0.0
2015-Apr-20 10:33N 47°32' W 122°20'0 0.0
2015-Apr-20 09:33N 47°32' W 122°20'0 0.0
2015-Apr-20 08:33N 47°32' W 122°20'0 0.0
2015-Apr-20 07:33N 47°32' W 122°20'0 0.0
2015-Apr-20 06:33N 47°32' W 122°20'0 0.0
2015-Apr-20 05:33N 47°32' W 122°20'0 0.0
2015-Apr-20 04:33N 47°32' W 122°20'0 0.0
2015-Apr-20 03:33N 47°32' W 122°20'0 0.0
2015-Apr-20 02:33N 47°32' W 122°20'0 0.0
2015-Apr-20 01:33N 47°32' W 122°20'0 0.0
2015-Apr-20 00:33N 47°32' W 122°20'0 0.0
2015-Apr-19 23:33N 47°32' W 122°20'0 0.0
2015-Apr-19 22:33N 47°32' W 122°20'0 0.0
2015-Apr-19 21:33N 47°32' W 122°20'0 0.0
2015-Apr-19 20:33N 47°32' W 122°20'0 0.0
2015-Apr-19 19:33N 47°32' W 122°20'0 0.0
2015-Apr-19 18:33N 47°32' W 122°20'0 0.0
2015-Apr-19 17:33N 47°32' W 122°20'0 0.0
2015-Apr-19 16:33N 47°32' W 122°20'0 0.0
2015-Apr-19 15:33N 47°32' W 122°20'0 0.0
2015-Apr-19 14:33N 47°32' W 122°20'0 0.0
2015-Apr-19 13:33N 47°32' W 122°20'0 0.0
2015-Apr-19 12:33N 47°32' W 122°20'0 0.0
2015-Apr-19 11:33N 47°32' W 122°20'0 0.0
2015-Apr-19 10:33N 47°32' W 122°20'0 0.0
2015-Apr-19 09:33N 47°32' W 122°20'0 0.0
2015-Apr-19 08:33N 47°32' W 122°20'0 0.0
2015-Apr-19 07:33N 47°32' W 122°20'0 0.0
2015-Apr-19 06:33N 47°32' W 122°20'0 0.0
2015-Apr-19 05:34N 47°32' W 122°20'0 0.0
2015-Apr-19 04:33N 47°32' W 122°20'0 0.0
2015-Apr-19 03:33N 47°32' W 122°20'0 0.0
2015-Apr-19 02:33N 47°32' W 122°20'0 0.0
2015-Apr-19 01:33N 47°32' W 122°20'0 0.0
2015-Apr-19 00:33N 47°32' W 122°20'0 0.0
2015-Apr-18 23:33N 47°32' W 122°20'0 0.0
2015-Apr-18 22:33N 47°32' W 122°20'0 0.0
2015-Apr-18 21:33N 47°32' W 122°20'0 0.0
2015-Apr-18 20:33N 47°32' W 122°20'0 0.0
2015-Apr-18 19:33N 47°32' W 122°20'0 0.0
2015-Apr-18 18:33N 47°32' W 122°20'0 0.0
2015-Apr-18 17:33N 47°32' W 122°20'0 0.0
2015-Apr-18 16:33N 47°32' W 122°20'0 0.0
2015-Apr-18 15:33N 47°32' W 122°20'0 0.0
2015-Apr-18 14:33N 47°32' W 122°20'0 0.0
2015-Apr-18 13:33N 47°32' W 122°20'0 0.0
2015-Apr-18 12:33N 47°32' W 122°20'0 0.0
2015-Apr-18 11:33N 47°32' W 122°20'0 0.0
2015-Apr-18 10:33N 47°32' W 122°20'0 0.0
2015-Apr-18 09:33N 47°32' W 122°20'0 0.0
2015-Apr-18 08:33N 47°32' W 122°20'0 0.0
2015-Apr-18 07:33N 47°32' W 122°20'  
Track history (hours):
 
Tides and Currents Weather Stations Pressure Air Temp Water Temp Dewpoint Dewpoint Depression Visibility Wind Speed Wind Dir Waves Ship Positions

Greta

Owner: General Electric Credit Corporation Of Tennessee, Seattle, WA. More information available from US FCC via Universal Licensing System and Coast Guard Vessel Documentation Center.

Last reported at 2015-Apr-28 07:09 UTC. Time now 2015-Jul-28 17:47 UTC.
Position N 58°18' W 136°18'.
Warning: this ship's position is months out of date.

Length 44 m; draft 2 m.

Type: Ship. MMSI: 367438220.

Date/timePositionNaut miles runAvg speedWind from/ knotsBaromVisibWave heightAir tempDewpointWater temp
2015-Apr-28 07:09N 58°18' W 136°18'4 6.3
2015-Apr-28 06:33N 58°19' W 136°11'6 6.3
2015-Apr-28 05:33N 58°20' W 135°60'6 6.0
2015-Apr-28 04:33N 58°22' W 135°49'6 6.4
2015-Apr-28 03:33N 58°23' W 135°37'2 2.1
2015-Apr-28 02:33N 58°23' W 135°33'0 0.1
2015-Apr-28 01:33N 58°23' W 135°33'0 0.1
2015-Apr-28 00:33N 58°23' W 135°33'4 3.4
2015-Apr-27 23:21N 58°20' W 135°27'  
2015-Apr-24 01:26N 51°25' W 128°03'6 4.9
2015-Apr-24 00:10N 51°20' W 127°57'4 5.2
2015-Apr-23 23:28N 51°17' W 127°55'5 5.3
2015-Apr-23 22:30N 51°12' W 127°52'5 5.0
2015-Apr-23 21:33N 51°08' W 127°48'6 5.9
2015-Apr-23 20:33N 51°04' W 127°41'6 6.3
2015-Apr-23 19:33N 50°60' W 127°34'7 7.3
2015-Apr-23 18:33N 50°55' W 127°25'7 6.9
2015-Apr-23 17:33N 50°51' W 127°15'7 7.1
2015-Apr-23 16:33N 50°48' W 127°06'7 6.9
2015-Apr-23 15:31N 50°43' W 126°57'7 6.7
2015-Apr-23 14:31N 50°39' W 126°49'7 6.3
2015-Apr-23 13:21N 50°33' W 126°41'95 5.0
2015-Apr-22 18:08N 49°42' W 124°37'4 3.9
2015-Apr-22 17:11N 49°39' W 124°32'13 4.8
2015-Apr-22 14:31N 49°32' W 124°16'7 6.3
2015-Apr-22 13:25N 49°28' W 124°07'5 5.8
2015-Apr-22 12:33N 49°25' W 124°01'6 5.8
2015-Apr-22 11:31N 49°21' W 123°54'5 5.5
2015-Apr-22 10:33N 49°18' W 123°47'5 5.3
2015-Apr-22 09:33N 49°15' W 123°41'6 5.6
2015-Apr-22 08:34N 49°12' W 123°34'5 5.3
2015-Apr-22 07:33N 49°08' W 123°27'5 4.8
2015-Apr-22 06:33N 49°05' W 123°22'4 4.4
2015-Apr-22 05:33N 49°02' W 123°17'5 5.3
2015-Apr-22 04:33N 48°59' W 123°11'5 5.1
2015-Apr-22 03:33N 48°55' W 123°05'6 5.9
2015-Apr-22 02:32N 48°51' W 122°58'6 5.9
2015-Apr-22 01:32N 48°47' W 122°51'7 6.8
2015-Apr-22 00:33N 48°43' W 122°44'8 7.8
2015-Apr-21 23:33N 48°35' W 122°45'7 6.6
2015-Apr-21 22:33N 48°29' W 122°44'4 4.2
2015-Apr-21 21:33N 48°24' W 122°44'3 3.2
2015-Apr-21 20:33N 48°21' W 122°45'4 3.4
2015-Apr-21 19:30N 48°18' W 122°46'4 4.5
2015-Apr-21 18:31N 48°14' W 122°48'5 5.2
2015-Apr-21 17:32N 48°10' W 122°43'8 8.2
2015-Apr-21 16:33N 48°03' W 122°38'9 8.8
2015-Apr-21 15:33N 47°56' W 122°29'7 7.1
2015-Apr-21 14:33N 47°49' W 122°26'6 6.0
2015-Apr-21 13:33N 47°43' W 122°26'5 5.1
2015-Apr-21 12:33N 47°38' W 122°26'3 3.4
2015-Apr-21 11:33N 47°35' W 122°22'0 0.0
2015-Apr-21 10:33N 47°35' W 122°22'0 0.0
2015-Apr-21 09:33N 47°35' W 122°23'0 0.0
2015-Apr-21 08:33N 47°35' W 122°22'0 0.1
2015-Apr-21 07:33N 47°35' W 122°22'0 0.1
2015-Apr-21 06:34N 47°35' W 122°22'5 5.4
2015-Apr-21 05:33N 47°41' W 122°25'1 1.3
2015-Apr-21 04:33N 47°40' W 122°23'0 0.0
2015-Apr-21 03:33N 47°40' W 122°23'0 0.0
2015-Apr-21 02:33N 47°40' W 122°23'0 0.0
2015-Apr-21 01:33N 47°40' W 122°23'0 0.0
2015-Apr-21 00:33N 47°40' W 122°23'0 0.2
2015-Apr-20 23:34N 47°40' W 122°23'2 2.3
2015-Apr-20 22:33N 47°38' W 122°26'7 6.6
2015-Apr-20 21:33N 47°33' W 122°20'0 0.0
2015-Apr-20 20:33N 47°33' W 122°20'0 0.0
2015-Apr-20 19:33N 47°33' W 122°20'0 0.0
2015-Apr-20 18:33N 47°33' W 122°20'0 0.0
2015-Apr-20 17:33N 47°33' W 122°20'0 0.1
2015-Apr-20 16:33N 47°33' W 122°20'1 0.8
2015-Apr-20 15:33N 47°32' W 122°20'0 0.0
2015-Apr-20 14:33N 47°32' W 122°20'0 0.0
2015-Apr-20 13:33N 47°32' W 122°20'0 0.0
2015-Apr-20 12:33N 47°32' W 122°20'0 0.0
2015-Apr-20 11:33N 47°32' W 122°20'0 0.0
2015-Apr-20 10:33N 47°32' W 122°20'0 0.0
2015-Apr-20 09:33N 47°32' W 122°20'0 0.0
2015-Apr-20 08:33N 47°32' W 122°20'0 0.0
2015-Apr-20 07:33N 47°32' W 122°20'0 0.0
2015-Apr-20 06:33N 47°32' W 122°20'0 0.0
2015-Apr-20 05:33N 47°32' W 122°20'0 0.0
2015-Apr-20 04:33N 47°32' W 122°20'0 0.0
2015-Apr-20 03:33N 47°32' W 122°20'0 0.0
2015-Apr-20 02:33N 47°32' W 122°20'0 0.0
2015-Apr-20 01:33N 47°32' W 122°20'0 0.0
2015-Apr-20 00:33N 47°32' W 122°20'0 0.0
2015-Apr-19 23:33N 47°32' W 122°20'0 0.0
2015-Apr-19 22:33N 47°32' W 122°20'0 0.0
2015-Apr-19 21:33N 47°32' W 122°20'0 0.0
2015-Apr-19 20:33N 47°32' W 122°20'0 0.0
2015-Apr-19 19:33N 47°32' W 122°20'0 0.0
2015-Apr-19 18:33N 47°32' W 122°20'0 0.0
2015-Apr-19 17:33N 47°32' W 122°20'0 0.0
2015-Apr-19 16:33N 47°32' W 122°20'0 0.0
2015-Apr-19 15:33N 47°32' W 122°20'0 0.0
2015-Apr-19 14:33N 47°32' W 122°20'0 0.0
2015-Apr-19 13:33N 47°32' W 122°20'0 0.0
2015-Apr-19 12:33N 47°32' W 122°20'0 0.0
2015-Apr-19 11:33N 47°32' W 122°20'0 0.0
2015-Apr-19 10:33N 47°32' W 122°20'0 0.0
2015-Apr-19 09:33N 47°32' W 122°20'0 0.0
2015-Apr-19 08:33N 47°32' W 122°20'0 0.0
2015-Apr-19 07:33N 47°32' W 122°20'0 0.0
2015-Apr-19 06:33N 47°32' W 122°20'0 0.0
2015-Apr-19 05:34N 47°32' W 122°20'0 0.0
2015-Apr-19 04:33N 47°32' W 122°20'0 0.0
2015-Apr-19 03:33N 47°32' W 122°20'0 0.0
2015-Apr-19 02:33N 47°32' W 122°20'0 0.0
2015-Apr-19 01:33N 47°32' W 122°20'0 0.0
2015-Apr-19 00:33N 47°32' W 122°20'0 0.0
2015-Apr-18 23:33N 47°32' W 122°20'0 0.0
2015-Apr-18 22:33N 47°32' W 122°20'0 0.0
2015-Apr-18 21:33N 47°32' W 122°20'0 0.0
2015-Apr-18 20:33N 47°32' W 122°20'0 0.0
2015-Apr-18 19:33N 47°32' W 122°20'0 0.0
2015-Apr-18 18:33N 47°32' W 122°20'0 0.0
2015-Apr-18 17:33N 47°32' W 122°20'0 0.0
2015-Apr-18 16:33N 47°32' W 122°20'0 0.0
2015-Apr-18 15:33N 47°32' W 122°20'0 0.0
2015-Apr-18 14:33N 47°32' W 122°20'0 0.0
2015-Apr-18 13:33N 47°32' W 122°20'0 0.0
2015-Apr-18 12:33N 47°32' W 122°20'0 0.0
2015-Apr-18 11:33N 47°32' W 122°20'0 0.0
2015-Apr-18 10:33N 47°32' W 122°20'0 0.0
2015-Apr-18 09:33N 47°32' W 122°20'0 0.0
2015-Apr-18 08:33N 47°32' W 122°20'0 0.0
2015-Apr-18 07:33N 47°32' W 122°20'  

Dump ship's entire track history